sensor_id;sensor_type;location;lat;lon;timestamp;temperature;humidity
69944;DHT22;57257;48.408;-4.498;2023-07-13T00:01:46;19.70;65.60
69944;DHT22;57257;48.408;-4.498;2023-07-13T00:04:15;19.74;65.66
69944;DHT22;57257;48.408;-4.498;2023-07-13T00:06:41;19.73;65.44
69944;DHT22;57257;48.408;-4.498;2023-07-13T00:09:11;19.70;65.54
69944;DHT22;57257;48.408;-4.498;2023-07-13T00:11:38;19.64;65.60
69944;DHT22;57257;48.408;-4.498;2023-07-13T00:14:03;19.63;65.75
69944;DHT22;57257;48.408;-4.498;2023-07-13T00:16:29;19.58;65.78
69944;DHT22;57257;48.408;-4.498;2023-07-13T00:18:54;19.57;65.98
69944;DHT22;57257;48.408;-4.498;2023-07-13T00:21:19;19.54;66.03
69944;DHT22;57257;48.408;-4.498;2023-07-13T00:23:45;19.56;65.94
69944;DHT22;57257;48.408;-4.498;2023-07-13T00:26:11;19.53;65.98
69944;DHT22;57257;48.408;-4.498;2023-07-13T00:28:38;19.56;66.07
69944;DHT22;57257;48.408;-4.498;2023-07-13T00:31:04;19.53;66.25
69944;DHT22;57257;48.408;-4.498;2023-07-13T00:33:29;19.53;66.36
69944;DHT22;57257;48.408;-4.498;2023-07-13T00:35:55;19.51;66.33
69944;DHT22;57257;48.408;-4.498;2023-07-13T00:38:21;19.53;66.27
69944;DHT22;57257;48.408;-4.498;2023-07-13T00:40:47;19.50;66.40
69944;DHT22;57257;48.408;-4.498;2023-07-13T00:43:16;19.51;66.34
69944;DHT22;57257;48.408;-4.498;2023-07-13T00:48:11;19.50;66.49
69944;DHT22;57257;48.408;-4.498;2023-07-13T00:50:38;19.51;66.58
69944;DHT22;57257;48.408;-4.498;2023-07-13T00:53:04;19.51;66.69
69944;DHT22;57257;48.408;-4.498;2023-07-13T00:55:30;19.54;66.59
69944;DHT22;57257;48.408;-4.498;2023-07-13T00:57:55;19.51;66.70
69944;DHT22;57257;48.408;-4.498;2023-07-13T01:00:22;19.49;66.61
69944;DHT22;57257;48.408;-4.498;2023-07-13T01:02:48;19.49;66.63
69944;DHT22;57257;48.408;-4.498;2023-07-13T01:05:20;19.49;66.55
69944;DHT22;57257;48.408;-4.498;2023-07-13T01:07:47;19.43;66.58
69944;DHT22;57257;48.408;-4.498;2023-07-13T01:10:14;19.41;66.90
69944;DHT22;57257;48.408;-4.498;2023-07-13T01:12:39;19.40;66.85
69944;DHT22;57257;48.408;-4.498;2023-07-13T01:15:32;19.38;66.81
69944;DHT22;57257;48.408;-4.498;2023-07-13T01:17:51;19.38;66.91
69944;DHT22;57257;48.408;-4.498;2023-07-13T01:20:17;19.40;66.93
69944;DHT22;57257;48.408;-4.498;2023-07-13T01:22:42;19.40;66.90
69944;DHT22;57257;48.408;-4.498;2023-07-13T01:25:08;19.41;66.84
69944;DHT22;57257;48.408;-4.498;2023-07-13T01:27:33;19.41;66.86
69944;DHT22;57257;48.408;-4.498;2023-07-13T01:29:59;19.43;66.65
69944;DHT22;57257;48.408;-4.498;2023-07-13T01:32:28;19.40;66.58
69944;DHT22;57257;48.408;-4.498;2023-07-13T01:34:56;19.37;66.52
69944;DHT22;57257;48.408;-4.498;2023-07-13T01:37:24;19.38;66.49
69944;DHT22;57257;48.408;-4.498;2023-07-13T01:39:50;19.38;66.43
69944;DHT22;57257;48.408;-4.498;2023-07-13T01:42:16;19.38;66.54
69944;DHT22;57257;48.408;-4.498;2023-07-13T01:44:41;19.40;66.52
69944;DHT22;57257;48.408;-4.498;2023-07-13T01:47:07;19.38;66.47
69944;DHT22;57257;48.408;-4.498;2023-07-13T01:49:32;19.41;66.48
69944;DHT22;57257;48.408;-4.498;2023-07-13T01:51:58;19.43;66.38
69944;DHT22;57257;48.408;-4.498;2023-07-13T01:54:23;19.43;66.26
69944;DHT22;57257;48.408;-4.498;2023-07-13T01:56:49;19.41;66.29
69944;DHT22;57257;48.408;-4.498;2023-07-13T01:59:14;19.40;66.40
69944;DHT22;57257;48.408;-4.498;2023-07-13T02:01:39;19.40;66.36
69944;DHT22;57257;48.408;-4.498;2023-07-13T02:04:05;19.41;66.31
69944;DHT22;57257;48.408;-4.498;2023-07-13T02:06:30;19.41;66.23
69944;DHT22;57257;48.408;-4.498;2023-07-13T02:08:57;19.40;66.32
69944;DHT22;57257;48.408;-4.498;2023-07-13T02:11:22;19.43;66.35
69944;DHT22;57257;48.408;-4.498;2023-07-13T02:13:48;19.40;66.36
69944;DHT22;57257;48.408;-4.498;2023-07-13T02:16:14;19.40;66.25
69944;DHT22;57257;48.408;-4.498;2023-07-13T02:18:39;19.41;66.28
69944;DHT22;57257;48.408;-4.498;2023-07-13T02:21:04;19.36;66.26
69944;DHT22;57257;48.408;-4.498;2023-07-13T02:23:30;19.31;66.28
69944;DHT22;57257;48.408;-4.498;2023-07-13T02:25:56;19.30;66.43
69944;DHT22;57257;48.408;-4.498;2023-07-13T02:28:22;19.24;66.57
69944;DHT22;57257;48.408;-4.498;2023-07-13T02:30:47;19.26;66.65
69944;DHT22;57257;48.408;-4.498;2023-07-13T02:33:13;19.24;66.67
69944;DHT22;57257;48.408;-4.498;2023-07-13T02:35:38;19.27;66.68
69944;DHT22;57257;48.408;-4.498;2023-07-13T02:38:03;19.26;66.71
69944;DHT22;57257;48.408;-4.498;2023-07-13T02:40:29;19.22;66.90
69944;DHT22;57257;48.408;-4.498;2023-07-13T02:42:54;19.26;66.95
69944;DHT22;57257;48.408;-4.498;2023-07-13T02:45:20;19.27;66.98
69944;DHT22;57257;48.408;-4.498;2023-07-13T02:47:45;19.26;67.03
69944;DHT22;57257;48.408;-4.498;2023-07-13T02:50:11;19.27;67.07
69944;DHT22;57257;48.408;-4.498;2023-07-13T02:52:36;19.28;67.03
69944;DHT22;57257;48.408;-4.498;2023-07-13T02:55:02;19.28;66.93
69944;DHT22;57257;48.408;-4.498;2023-07-13T02:57:28;19.27;66.91
69944;DHT22;57257;48.408;-4.498;2023-07-13T02:59:53;19.20;66.96
69944;DHT22;57257;48.408;-4.498;2023-07-13T03:02:20;19.19;66.98
69944;DHT22;57257;48.408;-4.498;2023-07-13T03:07:15;19.14;67.20
69944;DHT22;57257;48.408;-4.498;2023-07-13T03:09:40;19.13;67.27
69944;DHT22;57257;48.408;-4.498;2023-07-13T03:12:06;19.12;67.32
69944;DHT22;57257;48.408;-4.498;2023-07-13T03:14:32;19.14;67.37
69944;DHT22;57257;48.408;-4.498;2023-07-13T03:16:58;19.16;67.47
69944;DHT22;57257;48.408;-4.498;2023-07-13T03:19:23;19.16;67.40
69944;DHT22;57257;48.408;-4.498;2023-07-13T03:21:49;19.17;67.42
69944;DHT22;57257;48.408;-4.498;2023-07-13T03:24:14;19.20;67.49
69944;DHT22;57257;48.408;-4.498;2023-07-13T03:26:40;19.23;67.49
69944;DHT22;57257;48.408;-4.498;2023-07-13T03:29:06;19.22;67.38
69944;DHT22;57257;48.408;-4.498;2023-07-13T03:31:34;19.20;67.44
69944;DHT22;57257;48.408;-4.498;2023-07-13T03:34:00;19.20;67.42
69944;DHT22;57257;48.408;-4.498;2023-07-13T03:36:28;19.22;67.41
69944;DHT22;57257;48.408;-4.498;2023-07-13T03:38:57;19.20;67.34
69944;DHT22;57257;48.408;-4.498;2023-07-13T03:41:24;19.19;67.54
69944;DHT22;57257;48.408;-4.498;2023-07-13T03:43:50;19.16;67.58
69944;DHT22;57257;48.408;-4.498;2023-07-13T03:46:17;19.17;67.66
69944;DHT22;57257;48.408;-4.498;2023-07-13T03:48:44;19.19;67.64
69944;DHT22;57257;48.408;-4.498;2023-07-13T03:51:11;19.20;67.67
69944;DHT22;57257;48.408;-4.498;2023-07-13T03:53:41;19.19;67.60
69944;DHT22;57257;48.408;-4.498;2023-07-13T03:56:07;19.19;67.64
69944;DHT22;57257;48.408;-4.498;2023-07-13T03:58:37;19.16;67.72
69944;DHT22;57257;48.408;-4.498;2023-07-13T04:01:04;19.16;67.68
69944;DHT22;57257;48.408;-4.498;2023-07-13T04:03:31;19.16;67.67
69944;DHT22;57257;48.408;-4.498;2023-07-13T04:05:58;19.16;67.80
69944;DHT22;57257;48.408;-4.498;2023-07-13T04:08:28;19.16;67.71
69944;DHT22;57257;48.408;-4.498;2023-07-13T04:10:54;19.17;67.88
69944;DHT22;57257;48.408;-4.498;2023-07-13T04:13:20;19.20;67.76
69944;DHT22;57257;48.408;-4.498;2023-07-13T04:15:46;19.20;67.75
69944;DHT22;57257;48.408;-4.498;2023-07-13T04:18:11;19.23;67.53
69944;DHT22;57257;48.408;-4.498;2023-07-13T04:20:36;19.22;67.67
69944;DHT22;57257;48.408;-4.498;2023-07-13T04:23:02;19.22;67.76
69944;DHT22;57257;48.408;-4.498;2023-07-13T04:25:27;19.23;67.66
69944;DHT22;57257;48.408;-4.498;2023-07-13T04:27:53;19.23;67.59
69944;DHT22;57257;48.408;-4.498;2023-07-13T04:30:20;19.22;67.68
69944;DHT22;57257;48.408;-4.498;2023-07-13T04:32:45;19.24;67.68
69944;DHT22;57257;48.408;-4.498;2023-07-13T04:35:11;19.23;67.62
69944;DHT22;57257;48.408;-4.498;2023-07-13T04:37:37;19.23;67.57
69944;DHT22;57257;48.408;-4.498;2023-07-13T04:40:03;19.20;67.59
69944;DHT22;57257;48.408;-4.498;2023-07-13T04:42:29;19.19;67.69
69944;DHT22;57257;48.408;-4.498;2023-07-13T04:44:55;19.17;67.68
69944;DHT22;57257;48.408;-4.498;2023-07-13T04:47:20;19.19;67.71
69944;DHT22;57257;48.408;-4.498;2023-07-13T04:49:46;19.16;67.75
69944;DHT22;57257;48.408;-4.498;2023-07-13T04:52:11;19.19;67.68
69944;DHT22;57257;48.408;-4.498;2023-07-13T04:54:37;19.20;67.56
69944;DHT22;57257;48.408;-4.498;2023-07-13T04:57:04;19.22;67.64
69944;DHT22;57257;48.408;-4.498;2023-07-13T04:59:33;19.17;67.62
69944;DHT22;57257;48.408;-4.498;2023-07-13T05:01:58;19.20;67.78
69944;DHT22;57257;48.408;-4.498;2023-07-13T05:04:24;19.17;67.70
69944;DHT22;57257;48.408;-4.498;2023-07-13T05:06:49;19.19;67.72
69944;DHT22;57257;48.408;-4.498;2023-07-13T05:09:15;19.16;67.79
69944;DHT22;57257;48.408;-4.498;2023-07-13T05:11:40;19.20;67.70
69944;DHT22;57257;48.408;-4.498;2023-07-13T05:14:06;19.20;67.67
69944;DHT22;57257;48.408;-4.498;2023-07-13T05:16:31;19.19;67.68
69944;DHT22;57257;48.408;-4.498;2023-07-13T05:18:57;19.17;67.68
69944;DHT22;57257;48.408;-4.498;2023-07-13T05:21:23;19.20;67.85
69944;DHT22;57257;48.408;-4.498;2023-07-13T05:23:48;19.22;67.80
69944;DHT22;57257;48.408;-4.498;2023-07-13T05:26:13;19.24;67.83
69944;DHT22;57257;48.408;-4.498;2023-07-13T05:28:39;19.26;67.86
69944;DHT22;57257;48.408;-4.498;2023-07-13T05:31:07;19.31;67.81
69944;DHT22;57257;48.408;-4.498;2023-07-13T05:33:33;19.30;67.78
69944;DHT22;57257;48.408;-4.498;2023-07-13T05:35:59;19.31;67.81
69944;DHT22;57257;48.408;-4.498;2023-07-13T05:38:26;19.33;67.76
69944;DHT22;57257;48.408;-4.498;2023-07-13T05:40:53;19.37;67.83
69944;DHT22;57257;48.408;-4.498;2023-07-13T05:43:19;19.38;67.79
69944;DHT22;57257;48.408;-4.498;2023-07-13T05:45:44;19.38;67.76
69944;DHT22;57257;48.408;-4.498;2023-07-13T05:48:10;19.41;67.82
69944;DHT22;57257;48.408;-4.498;2023-07-13T05:50:36;19.46;67.80
69944;DHT22;57257;48.408;-4.498;2023-07-13T05:53:01;19.44;67.84
69944;DHT22;57257;48.408;-4.498;2023-07-13T05:55:27;19.44;67.68
69944;DHT22;57257;48.408;-4.498;2023-07-13T05:57:52;19.41;67.92
69944;DHT22;57257;48.408;-4.498;2023-07-13T06:00:18;19.38;67.81
69944;DHT22;57257;48.408;-4.498;2023-07-13T06:02:43;19.41;67.89
69944;DHT22;57257;48.408;-4.498;2023-07-13T06:05:09;19.43;67.86
69944;DHT22;57257;48.408;-4.498;2023-07-13T06:07:34;19.44;67.96
69944;DHT22;57257;48.408;-4.498;2023-07-13T06:10:00;19.46;67.81
69944;DHT22;57257;48.408;-4.498;2023-07-13T06:12:26;19.43;68.00
69944;DHT22;57257;48.408;-4.498;2023-07-13T06:14:51;19.49;68.09
69944;DHT22;57257;48.408;-4.498;2023-07-13T06:17:17;19.51;68.09
69944;DHT22;57257;48.408;-4.498;2023-07-13T06:19:43;19.51;68.10
69944;DHT22;57257;48.408;-4.498;2023-07-13T06:22:08;19.53;68.07
69944;DHT22;57257;48.408;-4.498;2023-07-13T06:24:34;19.54;67.91
69944;DHT22;57257;48.408;-4.498;2023-07-13T06:26:59;19.53;67.91
69944;DHT22;57257;48.408;-4.498;2023-07-13T06:29:24;19.51;68.04
69944;DHT22;57257;48.408;-4.498;2023-07-13T06:31:50;19.47;68.04
69944;DHT22;57257;48.408;-4.498;2023-07-13T06:34:15;19.44;68.08
69944;DHT22;57257;48.408;-4.498;2023-07-13T06:36:41;19.37;68.17
69944;DHT22;57257;48.408;-4.498;2023-07-13T06:39:06;19.38;68.16
69944;DHT22;57257;48.408;-4.498;2023-07-13T06:41:32;19.37;68.25
69944;DHT22;57257;48.408;-4.498;2023-07-13T06:43:58;19.38;68.35
69944;DHT22;57257;48.408;-4.498;2023-07-13T06:46:24;19.40;68.37
69944;DHT22;57257;48.408;-4.498;2023-07-13T06:48:50;19.38;68.47
69944;DHT22;57257;48.408;-4.498;2023-07-13T06:51:15;19.40;68.61
69944;DHT22;57257;48.408;-4.498;2023-07-13T06:53:41;19.43;68.67
69944;DHT22;57257;48.408;-4.498;2023-07-13T06:56:09;19.46;68.69
69944;DHT22;57257;48.408;-4.498;2023-07-13T06:58:35;19.50;68.81
69944;DHT22;57257;48.408;-4.498;2023-07-13T07:01:01;19.58;68.66
69944;DHT22;57257;48.408;-4.498;2023-07-13T07:03:26;19.60;68.75
69944;DHT22;57257;48.408;-4.498;2023-07-13T07:05:52;19.63;68.61
69944;DHT22;57257;48.408;-4.498;2023-07-13T07:08:18;19.70;68.71
69944;DHT22;57257;48.408;-4.498;2023-07-13T07:10:43;19.82;68.77
69944;DHT22;57257;48.408;-4.498;2023-07-13T07:13:10;19.90;68.75
69944;DHT22;57257;48.408;-4.498;2023-07-13T07:15:36;19.98;68.68
69944;DHT22;57257;48.408;-4.498;2023-07-13T07:18:01;20.02;68.50
69944;DHT22;57257;48.408;-4.498;2023-07-13T07:20:26;20.07;68.40
69944;DHT22;57257;48.408;-4.498;2023-07-13T07:22:52;20.07;68.30
69944;DHT22;57257;48.408;-4.498;2023-07-13T07:25:18;20.08;68.29
69944;DHT22;57257;48.408;-4.498;2023-07-13T07:27:44;20.11;68.26
69944;DHT22;57257;48.408;-4.498;2023-07-13T07:30:10;20.09;68.17
69944;DHT22;57257;48.408;-4.498;2023-07-13T07:32:35;20.07;68.26
69944;DHT22;57257;48.408;-4.498;2023-07-13T07:35:01;20.11;68.24
69944;DHT22;57257;48.408;-4.498;2023-07-13T07:37:26;20.08;68.20
69944;DHT22;57257;48.408;-4.498;2023-07-13T07:39:52;20.07;68.28
69944;DHT22;57257;48.408;-4.498;2023-07-13T07:42:17;20.08;68.21
69944;DHT22;57257;48.408;-4.498;2023-07-13T07:44:44;20.05;68.33
69944;DHT22;57257;48.408;-4.498;2023-07-13T07:47:09;20.12;68.22
69944;DHT22;57257;48.408;-4.498;2023-07-13T07:49:36;20.11;68.27
69944;DHT22;57257;48.408;-4.498;2023-07-13T07:52:01;20.17;68.23
69944;DHT22;57257;48.408;-4.498;2023-07-13T07:54:27;20.17;68.04
69944;DHT22;57257;48.408;-4.498;2023-07-13T07:56:53;20.15;68.17
69944;DHT22;57257;48.408;-4.498;2023-07-13T07:59:19;20.15;68.10
69944;DHT22;57257;48.408;-4.498;2023-07-13T08:01:44;20.12;68.04
69944;DHT22;57257;48.408;-4.498;2023-07-13T08:04:11;20.08;68.08
69944;DHT22;57257;48.408;-4.498;2023-07-13T08:06:37;20.08;68.22
69944;DHT22;57257;48.408;-4.498;2023-07-13T08:09:02;20.09;68.25
69944;DHT22;57257;48.408;-4.498;2023-07-13T08:11:29;20.08;68.30
69944;DHT22;57257;48.408;-4.498;2023-07-13T08:13:55;20.08;68.24
69944;DHT22;57257;48.408;-4.498;2023-07-13T08:16:20;20.08;68.27
69944;DHT22;57257;48.408;-4.498;2023-07-13T08:18:46;20.09;68.22
69944;DHT22;57257;48.408;-4.498;2023-07-13T08:21:12;20.09;68.36
69944;DHT22;57257;48.408;-4.498;2023-07-13T08:23:37;20.14;68.32
69944;DHT22;57257;48.408;-4.498;2023-07-13T08:26:03;20.18;68.40
69944;DHT22;57257;48.408;-4.498;2023-07-13T08:28:29;20.24;68.26
69944;DHT22;57257;48.408;-4.498;2023-07-13T08:31:00;20.24;68.14
69944;DHT22;57257;48.408;-4.498;2023-07-13T08:33:25;20.25;68.14
69944;DHT22;57257;48.408;-4.498;2023-07-13T08:35:51;20.25;68.01
69944;DHT22;57257;48.408;-4.498;2023-07-13T08:38:17;20.24;67.99
69944;DHT22;57257;48.408;-4.498;2023-07-13T08:40:43;20.24;67.84
69944;DHT22;57257;48.408;-4.498;2023-07-13T08:43:15;20.19;67.85
69944;DHT22;57257;48.408;-4.498;2023-07-13T08:45:47;20.24;67.93
69944;DHT22;57257;48.408;-4.498;2023-07-13T08:48:21;20.25;67.85
69944;DHT22;57257;48.408;-4.498;2023-07-13T08:51:22;20.32;67.82
69944;DHT22;57257;48.408;-4.498;2023-07-13T08:53:55;20.41;67.88
69944;DHT22;57257;48.408;-4.498;2023-07-13T08:56:25;20.42;67.73
69944;DHT22;57257;48.408;-4.498;2023-07-13T08:58:56;20.45;67.85
69944;DHT22;57257;48.408;-4.498;2023-07-13T09:01:42;20.52;67.85
69944;DHT22;57257;48.408;-4.498;2023-07-13T09:04:15;20.61;67.54
69944;DHT22;57257;48.408;-4.498;2023-07-13T09:12:14;20.51;67.17
69944;DHT22;57257;48.408;-4.498;2023-07-13T09:14:47;20.48;67.01
69944;DHT22;57257;48.408;-4.498;2023-07-13T09:17:17;20.35;67.37
69944;DHT22;57257;48.408;-4.498;2023-07-13T09:19:47;20.36;67.55
69944;DHT22;57257;48.408;-4.498;2023-07-13T09:22:18;20.38;67.54
69944;DHT22;57257;48.408;-4.498;2023-07-13T09:24:56;20.46;67.67
69944;DHT22;57257;48.408;-4.498;2023-07-13T09:27:30;20.65;67.83
69944;DHT22;57257;48.408;-4.498;2023-07-13T09:30:24;20.92;67.60
69944;DHT22;57257;48.408;-4.498;2023-07-13T09:32:53;21.13;67.24
69944;DHT22;57257;48.408;-4.498;2023-07-13T09:35:21;21.16;66.81
69944;DHT22;57257;48.408;-4.498;2023-07-13T09:37:48;21.16;66.91
69944;DHT22;57257;48.408;-4.498;2023-07-13T09:40:24;21.19;66.88
69944;DHT22;57257;48.408;-4.498;2023-07-13T09:42:55;21.19;66.83
69944;DHT22;57257;48.408;-4.498;2023-07-13T09:45:29;21.20;66.93
69944;DHT22;57257;48.408;-4.498;2023-07-13T09:48:07;21.17;66.79
69944;DHT22;57257;48.408;-4.498;2023-07-13T09:50:33;21.14;66.61
69944;DHT22;57257;48.408;-4.498;2023-07-13T09:53:01;21.16;66.82
69944;DHT22;57257;48.408;-4.498;2023-07-13T09:55:33;21.13;66.78
69944;DHT22;57257;48.408;-4.498;2023-07-13T09:58:24;21.13;66.53
69944;DHT22;57257;48.408;-4.498;2023-07-13T10:00:57;21.03;66.67
69944;DHT22;57257;48.408;-4.498;2023-07-13T10:03:27;21.13;66.58
69944;DHT22;57257;48.408;-4.498;2023-07-13T10:05:53;21.22;66.36
69944;DHT22;57257;48.408;-4.498;2023-07-13T10:08:26;21.34;66.18
69944;DHT22;57257;48.408;-4.498;2023-07-13T10:13:36;21.31;65.33
69944;DHT22;57257;48.408;-4.498;2023-07-13T10:16:04;21.34;65.22
69944;DHT22;57257;48.408;-4.498;2023-07-13T10:18:39;21.41;65.54
69944;DHT22;57257;48.408;-4.498;2023-07-13T10:21:17;21.60;64.97
69944;DHT22;57257;48.408;-4.498;2023-07-13T10:23:48;21.48;64.63
69944;DHT22;57257;48.408;-4.498;2023-07-13T10:26:23;21.54;65.18
69944;DHT22;57257;48.408;-4.498;2023-07-13T10:28:53;21.65;65.40
69944;DHT22;57257;48.408;-4.498;2023-07-13T10:31:21;21.81;64.77
69944;DHT22;57257;48.408;-4.498;2023-07-13T10:33:46;21.87;63.47
69944;DHT22;57257;48.408;-4.498;2023-07-13T10:36:27;21.92;63.38
69944;DHT22;57257;48.408;-4.498;2023-07-13T10:38:55;22.05;63.98
69944;DHT22;57257;48.408;-4.498;2023-07-13T10:41:24;22.13;63.36
69944;DHT22;57257;48.408;-4.498;2023-07-13T10:43:52;22.00;62.14
69944;DHT22;57257;48.408;-4.498;2023-07-13T10:46:24;21.91;62.09
69944;DHT22;57257;48.408;-4.498;2023-07-13T10:48:55;21.95;62.80
69944;DHT22;57257;48.408;-4.498;2023-07-13T10:51:22;22.04;62.30
69944;DHT22;57257;48.408;-4.498;2023-07-13T10:54:11;22.11;62.17
69944;DHT22;57257;48.408;-4.498;2023-07-13T10:56:39;22.19;62.15
69944;DHT22;57257;48.408;-4.498;2023-07-13T10:59:12;22.18;62.32
69944;DHT22;57257;48.408;-4.498;2023-07-13T11:01:51;22.35;62.65
69944;DHT22;57257;48.408;-4.498;2023-07-13T11:04:19;22.57;61.51
69944;DHT22;57257;48.408;-4.498;2023-07-13T11:06:47;22.75;60.55
69944;DHT22;57257;48.408;-4.498;2023-07-13T11:15:02;23.28;58.10
69944;DHT22;57257;48.408;-4.498;2023-07-13T11:25:41;23.72;53.75
69944;DHT22;57257;48.408;-4.498;2023-07-13T11:31:18;23.61;53.66
69944;DHT22;57257;48.408;-4.498;2023-07-13T11:33:49;23.77;53.80
69944;DHT22;57257;48.408;-4.498;2023-07-13T11:36:21;23.88;53.75
69944;DHT22;57257;48.408;-4.498;2023-07-13T11:41:35;23.84;53.43
69944;DHT22;57257;48.408;-4.498;2023-07-13T11:44:10;23.84;53.58
69944;DHT22;57257;48.408;-4.498;2023-07-13T11:46:36;23.91;53.81
69944;DHT22;57257;48.408;-4.498;2023-07-13T11:49:05;23.95;54.06
69944;DHT22;57257;48.408;-4.498;2023-07-13T11:51:33;23.98;53.78
69944;DHT22;57257;48.408;-4.498;2023-07-13T11:54:28;23.94;54.02
69944;DHT22;57257;48.408;-4.498;2023-07-13T11:57:33;23.98;54.26
69944;DHT22;57257;48.408;-4.498;2023-07-13T12:00:09;24.00;54.43
69944;DHT22;57257;48.408;-4.498;2023-07-13T12:02:39;24.02;54.64
69944;DHT22;57257;48.408;-4.498;2023-07-13T12:05:11;24.12;54.31
69944;DHT22;57257;48.408;-4.498;2023-07-13T12:07:37;24.06;54.32
69944;DHT22;57257;48.408;-4.498;2023-07-13T12:12:29;24.16;54.05
69944;DHT22;57257;48.408;-4.498;2023-07-13T12:14:55;24.08;53.92
69944;DHT22;57257;48.408;-4.498;2023-07-13T12:17:23;24.08;54.20
69944;DHT22;57257;48.408;-4.498;2023-07-13T12:19:50;24.15;54.48
69944;DHT22;57257;48.408;-4.498;2023-07-13T12:22:17;24.18;53.78
69944;DHT22;57257;48.408;-4.498;2023-07-13T12:24:44;24.08;53.63
69944;DHT22;57257;48.408;-4.498;2023-07-13T12:30:32;23.98;54.27
69944;DHT22;57257;48.408;-4.498;2023-07-13T12:32:38;24.05;54.16
69944;DHT22;57257;48.408;-4.498;2023-07-13T12:35:15;24.11;54.14
69944;DHT22;57257;48.408;-4.498;2023-07-13T12:37:46;24.19;54.24
69944;DHT22;57257;48.408;-4.498;2023-07-13T12:40:20;24.23;53.05
69944;DHT22;57257;48.408;-4.498;2023-07-13T12:42:48;24.18;53.46
69944;DHT22;57257;48.408;-4.498;2023-07-13T12:45:23;24.21;53.20
69944;DHT22;57257;48.408;-4.498;2023-07-13T12:47:53;24.26;53.06
69944;DHT22;57257;48.408;-4.498;2023-07-13T12:50:22;24.29;52.81
69944;DHT22;57257;48.408;-4.498;2023-07-13T12:52:53;24.23;52.95
69944;DHT22;57257;48.408;-4.498;2023-07-13T12:55:20;24.30;52.32
69944;DHT22;57257;48.408;-4.498;2023-07-13T12:57:53;24.25;52.92
69944;DHT22;57257;48.408;-4.498;2023-07-13T13:02:56;24.32;52.69
69944;DHT22;57257;48.408;-4.498;2023-07-13T13:05:25;24.42;52.51
69944;DHT22;57257;48.408;-4.498;2023-07-13T13:07:51;24.43;51.05
69944;DHT22;57257;48.408;-4.498;2023-07-13T13:10:17;24.23;50.92
69944;DHT22;57257;48.408;-4.498;2023-07-13T13:12:42;24.18;52.20
69944;DHT22;57257;48.408;-4.498;2023-07-13T13:15:09;24.23;52.07
69944;DHT22;57257;48.408;-4.498;2023-07-13T13:17:37;24.40;51.67
69944;DHT22;57257;48.408;-4.498;2023-07-13T13:20:14;24.42;50.81
69944;DHT22;57257;48.408;-4.498;2023-07-13T13:22:41;24.40;51.03
69944;DHT22;57257;48.408;-4.498;2023-07-13T13:25:10;24.40;50.62
69944;DHT22;57257;48.408;-4.498;2023-07-13T13:27:36;24.37;50.81
69944;DHT22;57257;48.408;-4.498;2023-07-13T13:30:02;24.48;50.86
69944;DHT22;57257;48.408;-4.498;2023-07-13T13:32:28;24.53;49.67
69944;DHT22;57257;48.408;-4.498;2023-07-13T13:34:53;24.57;50.25
69944;DHT22;57257;48.408;-4.498;2023-07-13T13:37:23;24.76;50.63
69944;DHT22;57257;48.408;-4.498;2023-07-13T13:39:50;24.76;49.91
69944;DHT22;57257;48.408;-4.498;2023-07-13T13:42:17;24.55;50.74
69944;DHT22;57257;48.408;-4.498;2023-07-13T13:44:42;24.45;50.92
69944;DHT22;57257;48.408;-4.498;2023-07-13T13:47:22;24.39;51.20
69944;DHT22;57257;48.408;-4.498;2023-07-13T13:49:49;24.43;51.28
69944;DHT22;57257;48.408;-4.498;2023-07-13T13:52:14;24.51;51.11
69944;DHT22;57257;48.408;-4.498;2023-07-13T13:54:40;24.59;50.59
69944;DHT22;57257;48.408;-4.498;2023-07-13T13:57:08;24.82;50.96
69944;DHT22;57257;48.408;-4.498;2023-07-13T13:59:33;25.04;50.64
69944;DHT22;57257;48.408;-4.498;2023-07-13T14:02:21;25.23;50.03
69944;DHT22;57257;48.408;-4.498;2023-07-13T14:04:49;25.27;49.45
69944;DHT22;57257;48.408;-4.498;2023-07-13T14:07:15;25.14;50.63
69944;DHT22;57257;48.408;-4.498;2023-07-13T14:09:41;25.21;50.55
69944;DHT22;57257;48.408;-4.498;2023-07-13T14:12:09;25.23;50.73
69944;DHT22;57257;48.408;-4.498;2023-07-13T14:14:37;25.24;50.79
69944;DHT22;57257;48.408;-4.498;2023-07-13T14:17:03;25.08;50.54
69944;DHT22;57257;48.408;-4.498;2023-07-13T14:19:29;25.00;51.08
69944;DHT22;57257;48.408;-4.498;2023-07-13T14:21:55;24.94;51.35
69944;DHT22;57257;48.408;-4.498;2023-07-13T14:24:20;25.03;50.45
69944;DHT22;57257;48.408;-4.498;2023-07-13T14:26:46;24.93;50.94
69944;DHT22;57257;48.408;-4.498;2023-07-13T14:29:17;24.57;50.62
69944;DHT22;57257;48.408;-4.498;2023-07-13T14:31:43;24.37;51.85
69944;DHT22;57257;48.408;-4.498;2023-07-13T14:34:12;24.09;52.31
69944;DHT22;57257;48.408;-4.498;2023-07-13T14:36:45;24.00;53.32
69944;DHT22;57257;48.408;-4.498;2023-07-13T14:39:16;23.82;53.71
69944;DHT22;57257;48.408;-4.498;2023-07-13T14:41:42;23.81;53.95
69944;DHT22;57257;48.408;-4.498;2023-07-13T14:44:16;23.77;53.73
69944;DHT22;57257;48.408;-4.498;2023-07-13T14:46:44;23.75;53.92
69944;DHT22;57257;48.408;-4.498;2023-07-13T14:49:21;23.94;53.51
69944;DHT22;57257;48.408;-4.498;2023-07-13T14:51:49;24.13;53.44
69944;DHT22;57257;48.408;-4.498;2023-07-13T14:54:14;24.21;52.17
69944;DHT22;57257;48.408;-4.498;2023-07-13T14:56:39;24.28;52.69
69944;DHT22;57257;48.408;-4.498;2023-07-13T14:59:05;24.59;51.70
69944;DHT22;57257;48.408;-4.498;2023-07-13T15:01:33;24.60;50.45
69944;DHT22;57257;48.408;-4.498;2023-07-13T15:03:59;24.65;50.63
69944;DHT22;57257;48.408;-4.498;2023-07-13T15:06:24;24.67;50.45
69944;DHT22;57257;48.408;-4.498;2023-07-13T15:08:49;24.72;50.41
69944;DHT22;57257;48.408;-4.498;2023-07-13T15:11:16;24.86;51.14
69944;DHT22;57257;48.408;-4.498;2023-07-13T15:13:41;25.16;50.63
69944;DHT22;57257;48.408;-4.498;2023-07-13T15:16:21;25.24;50.16
69944;DHT22;57257;48.408;-4.498;2023-07-13T15:18:48;25.18;50.24
69944;DHT22;57257;48.408;-4.498;2023-07-13T15:21:20;25.20;50.54
69944;DHT22;57257;48.408;-4.498;2023-07-13T15:23:46;25.26;50.62
69944;DHT22;57257;48.408;-4.498;2023-07-13T15:26:14;25.33;49.83
69944;DHT22;57257;48.408;-4.498;2023-07-13T15:28:41;25.17;50.29
69944;DHT22;57257;48.408;-4.498;2023-07-13T15:31:24;25.03;50.75
69944;DHT22;57257;48.408;-4.498;2023-07-13T15:33:52;24.91;51.41
69944;DHT22;57257;48.408;-4.498;2023-07-13T15:36:19;25.03;51.80
69944;DHT22;57257;48.408;-4.498;2023-07-13T15:38:45;25.06;51.27
69944;DHT22;57257;48.408;-4.498;2023-07-13T15:41:16;24.97;51.88
69944;DHT22;57257;48.408;-4.498;2023-07-13T15:43:41;24.91;52.49
69944;DHT22;57257;48.408;-4.498;2023-07-13T15:46:07;24.96;52.38
69944;DHT22;57257;48.408;-4.498;2023-07-13T15:48:32;24.96;52.73
69944;DHT22;57257;48.408;-4.498;2023-07-13T15:51:01;24.90;53.09
69944;DHT22;57257;48.408;-4.498;2023-07-13T15:53:32;24.70;53.29
69944;DHT22;57257;48.408;-4.498;2023-07-13T15:55:59;24.51;54.11
69944;DHT22;57257;48.408;-4.498;2023-07-13T15:58:25;24.52;54.09
69944;DHT22;57257;48.408;-4.498;2023-07-13T16:00:52;24.32;54.10